Green Cove Springs, Florida
Current Conditions -  °F | °C
As of 11:53 PM on Monday 20 Oct 2014 (Local Time) from KNIP Reporting Station
Broken Clouds Broken Clouds  
Wind Chill: 77°   Ceiling: 25000
Heat Index: 79°   Visibility: 10mi
Dew Point: 67°   Wind: 5mph
Humidity: 71%   Direction: 170°S
Pressure: 29.99"   Gusts: NA
Location:  29.99°N, 81.68°W
Report Text: KNIP 210353Z 17004KT 10SM BKN250 25/19 A2999 RMK AO2 SLP150 T02500194
Loading
Personal Weather Stations






























Interactive Weather Map New forecast layout! Learn more

10-Day Weather Forecast

Advertisements
Track Severe Weather on mobile